sensor_id;sensor_type;location;lat;lon;timestamp;temperature;humidity
14993;DHT22;7592;51.088;13.732;2022-09-09T00:06:23;14.60;99.90
14993;DHT22;7592;51.088;13.732;2022-09-09T00:11:25;14.50;99.90
14993;DHT22;7592;51.088;13.732;2022-09-09T00:16:27;14.40;99.90
14993;DHT22;7592;51.088;13.732;2022-09-09T00:21:35;14.40;99.90
14993;DHT22;7592;51.088;13.732;2022-09-09T00:26:50;14.30;99.90
14993;DHT22;7592;51.088;13.732;2022-09-09T00:31:43;14.20;99.90
14993;DHT22;7592;51.088;13.732;2022-09-09T00:36:35;14.10;99.90
14993;DHT22;7592;51.088;13.732;2022-09-09T00:52:02;14.00;99.90
14993;DHT22;7592;51.088;13.732;2022-09-09T00:57:22;13.90;99.90
14993;DHT22;7592;51.088;13.732;2022-09-09T01:02:39;13.80;99.90
14993;DHT22;7592;51.088;13.732;2022-09-09T01:07:36;13.90;99.90
14993;DHT22;7592;51.088;13.732;2022-09-09T01:12:43;14.00;99.90
14993;DHT22;7592;51.088;13.732;2022-09-09T01:28:11;13.80;99.90
14993;DHT22;7592;51.088;13.732;2022-09-09T01:33:13;13.70;99.90
14993;DHT22;7592;51.088;13.732;2022-09-09T01:38:07;13.70;99.90
14993;DHT22;7592;51.088;13.732;2022-09-09T01:43:00;13.60;99.90
14993;DHT22;7592;51.088;13.732;2022-09-09T01:47:52;13.70;99.90
14993;DHT22;7592;51.088;13.732;2022-09-09T01:53:10;13.60;99.90
14993;DHT22;7592;51.088;13.732;2022-09-09T02:03:28;13.50;99.90
14993;DHT22;7592;51.088;13.732;2022-09-09T02:08:42;13.50;99.90
14993;DHT22;7592;51.088;13.732;2022-09-09T02:13:37;13.50;99.90
14993;DHT22;7592;51.088;13.732;2022-09-09T02:18:50;13.50;99.90
14993;DHT22;7592;51.088;13.732;2022-09-09T02:23:50;13.40;99.90
14993;DHT22;7592;51.088;13.732;2022-09-09T02:28:44;13.40;99.90
14993;DHT22;7592;51.088;13.732;2022-09-09T02:33:42;13.30;99.90
14993;DHT22;7592;51.088;13.732;2022-09-09T02:38:40;13.20;99.90
14993;DHT22;7592;51.088;13.732;2022-09-09T02:43:38;13.10;99.90
14993;DHT22;7592;51.088;13.732;2022-09-09T02:48:43;13.10;99.90
14993;DHT22;7592;51.088;13.732;2022-09-09T02:53:49;13.10;99.90
14993;DHT22;7592;51.088;13.732;2022-09-09T02:58:44;13.10;99.90
14993;DHT22;7592;51.088;13.732;2022-09-09T03:03:36;13.10;99.90
14993;DHT22;7592;51.088;13.732;2022-09-09T03:08:33;13.00;99.90
14993;DHT22;7592;51.088;13.732;2022-09-09T03:13:25;13.00;99.90
14993;DHT22;7592;51.088;13.732;2022-09-09T03:18:18;13.00;99.90
14993;DHT22;7592;51.088;13.732;2022-09-09T03:23:14;13.00;99.90
14993;DHT22;7592;51.088;13.732;2022-09-09T03:28:08;12.90;99.90
14993;DHT22;7592;51.088;13.732;2022-09-09T03:33:01;12.90;99.90
14993;DHT22;7592;51.088;13.732;2022-09-09T03:37:56;12.80;99.90
14993;DHT22;7592;51.088;13.732;2022-09-09T03:42:49;12.70;99.90
14993;DHT22;7592;51.088;13.732;2022-09-09T03:47:43;12.70;99.90
14993;DHT22;7592;51.088;13.732;2022-09-09T03:52:40;12.70;99.90
14993;DHT22;7592;51.088;13.732;2022-09-09T03:57:39;12.70;99.90
14993;DHT22;7592;51.088;13.732;2022-09-09T04:02:33;12.80;99.90
14993;DHT22;7592;51.088;13.732;2022-09-09T04:07:25;12.80;99.90
14993;DHT22;7592;51.088;13.732;2022-09-09T04:12:20;12.80;99.90
14993;DHT22;7592;51.088;13.732;2022-09-09T04:17:13;12.80;99.90
14993;DHT22;7592;51.088;13.732;2022-09-09T04:22:06;12.80;99.90
14993;DHT22;7592;51.088;13.732;2022-09-09T04:26:58;12.90;99.90
14993;DHT22;7592;51.088;13.732;2022-09-09T04:31:50;13.00;99.90
14993;DHT22;7592;51.088;13.732;2022-09-09T04:36:43;13.00;99.90
14993;DHT22;7592;51.088;13.732;2022-09-09T04:41:35;13.00;99.90
14993;DHT22;7592;51.088;13.732;2022-09-09T04:46:28;13.20;99.90
14993;DHT22;7592;51.088;13.732;2022-09-09T04:51:22;13.40;99.90
14993;DHT22;7592;51.088;13.732;2022-09-09T04:56:17;13.60;99.90
14993;DHT22;7592;51.088;13.732;2022-09-09T05:01:20;13.70;99.90
14993;DHT22;7592;51.088;13.732;2022-09-09T05:06:21;13.80;99.90
14993;DHT22;7592;51.088;13.732;2022-09-09T05:11:19;13.90;99.90
14993;DHT22;7592;51.088;13.732;2022-09-09T05:16:14;14.20;99.90
14993;DHT22;7592;51.088;13.732;2022-09-09T05:21:07;14.40;99.90
14993;DHT22;7592;51.088;13.732;2022-09-09T05:26:02;14.80;99.90
14993;DHT22;7592;51.088;13.732;2022-09-09T05:31:00;15.10;99.90
14993;DHT22;7592;51.088;13.732;2022-09-09T05:35:56;15.40;99.90
14993;DHT22;7592;51.088;13.732;2022-09-09T05:40:49;15.80;99.90
14993;DHT22;7592;51.088;13.732;2022-09-09T05:45:42;16.10;99.90
14993;DHT22;7592;51.088;13.732;2022-09-09T05:50:34;16.40;99.90
14993;DHT22;7592;51.088;13.732;2022-09-09T05:55:26;16.70;99.90
14993;DHT22;7592;51.088;13.732;2022-09-09T06:00:19;16.90;99.90
14993;DHT22;7592;51.088;13.732;2022-09-09T06:05:13;17.10;99.90
14993;DHT22;7592;51.088;13.732;2022-09-09T06:10:08;17.10;99.90
14993;DHT22;7592;51.088;13.732;2022-09-09T06:15:01;17.50;99.90
14993;DHT22;7592;51.088;13.732;2022-09-09T06:19:53;18.70;99.90
14993;DHT22;7592;51.088;13.732;2022-09-09T06:24:45;20.10;99.90
14993;DHT22;7592;51.088;13.732;2022-09-09T06:29:37;19.70;99.90
14993;DHT22;7592;51.088;13.732;2022-09-09T06:34:30;19.40;99.90
14993;DHT22;7592;51.088;13.732;2022-09-09T06:39:24;20.80;99.90
14993;DHT22;7592;51.088;13.732;2022-09-09T06:44:17;21.20;99.90
14993;DHT22;7592;51.088;13.732;2022-09-09T06:49:09;21.60;99.90
14993;DHT22;7592;51.088;13.732;2022-09-09T06:54:03;21.60;99.90
14993;DHT22;7592;51.088;13.732;2022-09-09T06:58:59;23.60;99.90
14993;DHT22;7592;51.088;13.732;2022-09-09T07:03:58;23.20;99.90
14993;DHT22;7592;51.088;13.732;2022-09-09T07:08:59;22.20;99.90
14993;DHT22;7592;51.088;13.732;2022-09-09T07:13:53;25.90;99.90
14993;DHT22;7592;51.088;13.732;2022-09-09T07:18:47;25.70;99.90
14993;DHT22;7592;51.088;13.732;2022-09-09T07:23:43;25.00;99.90
14993;DHT22;7592;51.088;13.732;2022-09-09T07:28:37;26.90;99.90
14993;DHT22;7592;51.088;13.732;2022-09-09T07:33:31;30.70;97.70
14993;DHT22;7592;51.088;13.732;2022-09-09T07:38:24;31.10;89.70
14993;DHT22;7592;51.088;13.732;2022-09-09T07:43:16;30.20;88.40
14993;DHT22;7592;51.088;13.732;2022-09-09T07:48:10;32.60;84.80
14993;DHT22;7592;51.088;13.732;2022-09-09T07:53:04;36.80;73.50
14993;DHT22;7592;51.088;13.732;2022-09-09T07:57:58;34.70;65.70
14993;DHT22;7592;51.088;13.732;2022-09-09T08:02:50;35.50;64.70
14993;DHT22;7592;51.088;13.732;2022-09-09T08:07:46;35.90;64.20
14993;DHT22;7592;51.088;13.732;2022-09-09T08:12:39;32.20;69.00
14993;DHT22;7592;51.088;13.732;2022-09-09T08:17:56;29.70;77.80
14993;DHT22;7592;51.088;13.732;2022-09-09T08:22:48;27.90;82.30
14993;DHT22;7592;51.088;13.732;2022-09-09T08:27:41;26.50;87.10
14993;DHT22;7592;51.088;13.732;2022-09-09T08:32:34;26.70;90.40
14993;DHT22;7592;51.088;13.732;2022-09-09T08:37:27;27.00;91.10
14993;DHT22;7592;51.088;13.732;2022-09-09T08:42:34;26.70;92.20
14993;DHT22;7592;51.088;13.732;2022-09-09T08:52:31;26.30;95.00
14993;DHT22;7592;51.088;13.732;2022-09-09T08:57:28;26.70;96.00
14993;DHT22;7592;51.088;13.732;2022-09-09T09:03:03;27.40;94.80
14993;DHT22;7592;51.088;13.732;2022-09-09T09:08:31;27.40;94.80
14993;DHT22;7592;51.088;13.732;2022-09-09T09:13:34;26.50;97.30
14993;DHT22;7592;51.088;13.732;2022-09-09T09:18:35;26.10;97.20
14993;DHT22;7592;51.088;13.732;2022-09-09T09:23:45;25.30;99.90
14993;DHT22;7592;51.088;13.732;2022-09-09T09:28:40;24.90;99.90
14993;DHT22;7592;51.088;13.732;2022-09-09T09:38:33;23.50;99.90
14993;DHT22;7592;51.088;13.732;2022-09-09T09:43:53;23.30;99.90
14993;DHT22;7592;51.088;13.732;2022-09-09T09:49:08;23.50;99.90
14993;DHT22;7592;51.088;13.732;2022-09-09T09:59:03;25.90;99.90
14993;DHT22;7592;51.088;13.732;2022-09-09T10:04:17;30.30;99.90
14993;DHT22;7592;51.088;13.732;2022-09-09T10:14:33;37.10;66.50
14993;DHT22;7592;51.088;13.732;2022-09-09T10:19:34;38.10;66.80
14993;DHT22;7592;51.088;13.732;2022-09-09T10:24:54;37.50;63.80
14993;DHT22;7592;51.088;13.732;2022-09-09T10:30:56;36.40;64.50
14993;DHT22;7592;51.088;13.732;2022-09-09T10:35:31;35.60;65.00
14993;DHT22;7592;51.088;13.732;2022-09-09T10:56:01;36.70;58.00
14993;DHT22;7592;51.088;13.732;2022-09-09T11:00:59;35.90;58.80
14993;DHT22;7592;51.088;13.732;2022-09-09T11:06:05;36.10;59.30
14993;DHT22;7592;51.088;13.732;2022-09-09T11:16:27;34.70;60.70
14993;DHT22;7592;51.088;13.732;2022-09-09T11:21:30;30.70;69.80
14993;DHT22;7592;51.088;13.732;2022-09-09T11:27:00;28.20;76.00
14993;DHT22;7592;51.088;13.732;2022-09-09T11:37:15;26.10;84.30
14993;DHT22;7592;51.088;13.732;2022-09-09T11:57:35;25.50;99.90
14993;DHT22;7592;51.088;13.732;2022-09-09T12:02:28;25.30;99.90
14993;DHT22;7592;51.088;13.732;2022-09-09T12:07:26;25.60;99.90
14993;DHT22;7592;51.088;13.732;2022-09-09T12:12:26;25.90;99.90
14993;DHT22;7592;51.088;13.732;2022-09-09T12:17:23;25.70;99.90
14993;DHT22;7592;51.088;13.732;2022-09-09T12:22:59;25.50;99.90
14993;DHT22;7592;51.088;13.732;2022-09-09T12:27:44;25.40;99.90
14993;DHT22;7592;51.088;13.732;2022-09-09T12:32:38;24.90;99.90
14993;DHT22;7592;51.088;13.732;2022-09-09T12:37:53;24.70;99.90
14993;DHT22;7592;51.088;13.732;2022-09-09T12:42:49;24.90;99.90
14993;DHT22;7592;51.088;13.732;2022-09-09T12:47:50;25.80;99.90
14993;DHT22;7592;51.088;13.732;2022-09-09T12:52:43;26.00;99.90
14993;DHT22;7592;51.088;13.732;2022-09-09T12:57:38;25.60;99.90
14993;DHT22;7592;51.088;13.732;2022-09-09T13:02:31;25.50;99.90
14993;DHT22;7592;51.088;13.732;2022-09-09T13:07:24;25.30;99.90
14993;DHT22;7592;51.088;13.732;2022-09-09T13:12:19;25.10;99.90
14993;DHT22;7592;51.088;13.732;2022-09-09T13:17:22;25.10;99.90
14993;DHT22;7592;51.088;13.732;2022-09-09T13:22:21;25.10;99.90
14993;DHT22;7592;51.088;13.732;2022-09-09T13:27:28;25.60;99.90
14993;DHT22;7592;51.088;13.732;2022-09-09T13:32:21;25.80;99.90
14993;DHT22;7592;51.088;13.732;2022-09-09T13:37:23;25.50;99.90
14993;DHT22;7592;51.088;13.732;2022-09-09T13:42:27;25.60;99.90
14993;DHT22;7592;51.088;13.732;2022-09-09T13:47:33;25.30;99.90
14993;DHT22;7592;51.088;13.732;2022-09-09T13:52:31;25.30;99.90
14993;DHT22;7592;51.088;13.732;2022-09-09T13:57:24;25.30;99.90
14993;DHT22;7592;51.088;13.732;2022-09-09T14:02:17;25.40;99.90
14993;DHT22;7592;51.088;13.732;2022-09-09T14:07:13;25.40;99.90
14993;DHT22;7592;51.088;13.732;2022-09-09T14:12:12;25.30;99.90
14993;DHT22;7592;51.088;13.732;2022-09-09T14:17:05;25.20;99.90
14993;DHT22;7592;51.088;13.732;2022-09-09T14:21:59;25.30;99.90
14993;DHT22;7592;51.088;13.732;2022-09-09T14:26:51;25.50;99.90
14993;DHT22;7592;51.088;13.732;2022-09-09T14:31:43;25.70;99.90
14993;DHT22;7592;51.088;13.732;2022-09-09T14:36:35;25.90;99.90
14993;DHT22;7592;51.088;13.732;2022-09-09T14:41:27;26.20;99.90
14993;DHT22;7592;51.088;13.732;2022-09-09T14:46:21;26.20;99.90
14993;DHT22;7592;51.088;13.732;2022-09-09T14:51:22;26.10;99.90
14993;DHT22;7592;51.088;13.732;2022-09-09T14:56:17;25.70;99.90
14993;DHT22;7592;51.088;13.732;2022-09-09T15:01:12;25.60;99.90
14993;DHT22;7592;51.088;13.732;2022-09-09T15:06:06;25.30;99.90
14993;DHT22;7592;51.088;13.732;2022-09-09T15:11:01;25.30;99.90
14993;DHT22;7592;51.088;13.732;2022-09-09T15:15:54;25.20;99.90
14993;DHT22;7592;51.088;13.732;2022-09-09T15:20:47;25.00;99.90
14993;DHT22;7592;51.088;13.732;2022-09-09T15:25:55;25.10;99.90
14993;DHT22;7592;51.088;13.732;2022-09-09T15:30:49;25.10;99.90
14993;DHT22;7592;51.088;13.732;2022-09-09T15:35:42;25.30;99.90
14993;DHT22;7592;51.088;13.732;2022-09-09T15:40:35;25.20;99.90
14993;DHT22;7592;51.088;13.732;2022-09-09T15:45:27;25.10;99.90
14993;DHT22;7592;51.088;13.732;2022-09-09T15:50:19;25.00;99.90
14993;DHT22;7592;51.088;13.732;2022-09-09T15:55:11;24.70;99.90
14993;DHT22;7592;51.088;13.732;2022-09-09T16:00:04;24.30;99.90
14993;DHT22;7592;51.088;13.732;2022-09-09T16:04:57;23.80;99.90
14993;DHT22;7592;51.088;13.732;2022-09-09T16:09:49;23.40;99.90
14993;DHT22;7592;51.088;13.732;2022-09-09T16:14:45;23.00;99.90
14993;DHT22;7592;51.088;13.732;2022-09-09T16:19:37;23.00;99.90
14993;DHT22;7592;51.088;13.732;2022-09-09T16:24:30;22.80;99.90
14993;DHT22;7592;51.088;13.732;2022-09-09T16:29:23;22.60;99.90
14993;DHT22;7592;51.088;13.732;2022-09-09T16:34:17;22.50;99.90
14993;DHT22;7592;51.088;13.732;2022-09-09T16:39:18;22.30;99.90
14993;DHT22;7592;51.088;13.732;2022-09-09T16:44:12;22.30;99.90
14993;DHT22;7592;51.088;13.732;2022-09-09T16:49:07;22.30;99.90
14993;DHT22;7592;51.088;13.732;2022-09-09T16:54:01;22.30;99.90
14993;DHT22;7592;51.088;13.732;2022-09-09T16:58:57;22.30;99.90
14993;DHT22;7592;51.088;13.732;2022-09-09T17:03:57;22.30;99.90
14993;DHT22;7592;51.088;13.732;2022-09-09T17:08:56;22.30;99.90
14993;DHT22;7592;51.088;13.732;2022-09-09T17:13:50;22.30;99.90
14993;DHT22;7592;51.088;13.732;2022-09-09T17:18:42;22.00;99.90
14993;DHT22;7592;51.088;13.732;2022-09-09T17:23:36;21.70;99.90
14993;DHT22;7592;51.088;13.732;2022-09-09T17:28:29;21.30;99.90
14993;DHT22;7592;51.088;13.732;2022-09-09T17:33:23;21.00;99.90
14993;DHT22;7592;51.088;13.732;2022-09-09T17:38:15;20.80;99.90
14993;DHT22;7592;51.088;13.732;2022-09-09T17:43:07;20.50;99.90
14993;DHT22;7592;51.088;13.732;2022-09-09T17:48:00;20.40;99.90
14993;DHT22;7592;51.088;13.732;2022-09-09T17:52:52;20.10;99.90
14993;DHT22;7592;51.088;13.732;2022-09-09T17:57:44;20.00;99.90
14993;DHT22;7592;51.088;13.732;2022-09-09T18:02:37;19.70;99.90
14993;DHT22;7592;51.088;13.732;2022-09-09T18:07:30;19.60;99.90
14993;DHT22;7592;51.088;13.732;2022-09-09T18:12:22;19.60;99.90
14993;DHT22;7592;51.088;13.732;2022-09-09T18:17:14;19.50;99.90
14993;DHT22;7592;51.088;13.732;2022-09-09T18:22:06;19.40;99.90
14993;DHT22;7592;51.088;13.732;2022-09-09T18:26:58;19.30;99.90
14993;DHT22;7592;51.088;13.732;2022-09-09T18:31:53;19.30;99.90
14993;DHT22;7592;51.088;13.732;2022-09-09T18:36:48;19.20;99.90
14993;DHT22;7592;51.088;13.732;2022-09-09T18:41:45;19.10;99.90
14993;DHT22;7592;51.088;13.732;2022-09-09T18:46:37;19.20;99.90
14993;DHT22;7592;51.088;13.732;2022-09-09T18:51:31;19.10;99.90
14993;DHT22;7592;51.088;13.732;2022-09-09T18:56:24;19.20;99.90
14993;DHT22;7592;51.088;13.732;2022-09-09T19:01:16;19.20;99.90
14993;DHT22;7592;51.088;13.732;2022-09-09T19:06:12;19.10;99.90
14993;DHT22;7592;51.088;13.732;2022-09-09T19:11:06;19.00;99.90
14993;DHT22;7592;51.088;13.732;2022-09-09T19:16:07;19.00;99.90
14993;DHT22;7592;51.088;13.732;2022-09-09T19:21:17;18.80;99.90
14993;DHT22;7592;51.088;13.732;2022-09-09T19:26:09;18.70;99.90
14993;DHT22;7592;51.088;13.732;2022-09-09T19:31:07;18.60;99.90
14993;DHT22;7592;51.088;13.732;2022-09-09T19:36:04;18.50;99.90
14993;DHT22;7592;51.088;13.732;2022-09-09T19:41:06;18.40;99.90
14993;DHT22;7592;51.088;13.732;2022-09-09T19:46:00;18.40;99.90
14993;DHT22;7592;51.088;13.732;2022-09-09T19:51:03;18.40;99.90
14993;DHT22;7592;51.088;13.732;2022-09-09T19:55:56;18.40;99.90
14993;DHT22;7592;51.088;13.732;2022-09-09T20:00:48;18.40;99.90
14993;DHT22;7592;51.088;13.732;2022-09-09T20:05:40;18.40;99.90
14993;DHT22;7592;51.088;13.732;2022-09-09T20:10:32;18.40;99.90
14993;DHT22;7592;51.088;13.732;2022-09-09T20:15:25;18.30;99.90
14993;DHT22;7592;51.088;13.732;2022-09-09T20:20:17;18.40;99.90
14993;DHT22;7592;51.088;13.732;2022-09-09T20:25:10;18.40;99.90
14993;DHT22;7592;51.088;13.732;2022-09-09T20:30:02;18.40;99.90
14993;DHT22;7592;51.088;13.732;2022-09-09T20:34:55;18.40;99.90
14993;DHT22;7592;51.088;13.732;2022-09-09T20:39:47;18.50;99.90
14993;DHT22;7592;51.088;13.732;2022-09-09T20:44:40;18.40;99.90
14993;DHT22;7592;51.088;13.732;2022-09-09T20:49:32;18.30;99.90
14993;DHT22;7592;51.088;13.732;2022-09-09T20:54:28;18.40;99.90
14993;DHT22;7592;51.088;13.732;2022-09-09T20:59:25;18.40;99.90
14993;DHT22;7592;51.088;13.732;2022-09-09T21:04:19;18.40;99.90
14993;DHT22;7592;51.088;13.732;2022-09-09T21:09:11;18.40;99.90
14993;DHT22;7592;51.088;13.732;2022-09-09T21:14:04;18.30;99.90
14993;DHT22;7592;51.088;13.732;2022-09-09T21:18:56;18.30;99.90
14993;DHT22;7592;51.088;13.732;2022-09-09T21:23:54;18.30;99.90
14993;DHT22;7592;51.088;13.732;2022-09-09T21:28:47;18.30;99.90
14993;DHT22;7592;51.088;13.732;2022-09-09T21:33:39;18.40;99.90
14993;DHT22;7592;51.088;13.732;2022-09-09T21:38:33;18.30;99.90
14993;DHT22;7592;51.088;13.732;2022-09-09T21:43:25;18.20;99.90
14993;DHT22;7592;51.088;13.732;2022-09-09T21:48:17;18.20;99.90
14993;DHT22;7592;51.088;13.732;2022-09-09T21:53:11;18.10;99.90
14993;DHT22;7592;51.088;13.732;2022-09-09T21:58:04;18.00;99.90
14993;DHT22;7592;51.088;13.732;2022-09-09T22:02:58;17.90;99.90
14993;DHT22;7592;51.088;13.732;2022-09-09T22:07:50;17.80;99.90
14993;DHT22;7592;51.088;13.732;2022-09-09T22:12:44;17.60;99.90
14993;DHT22;7592;51.088;13.732;2022-09-09T22:17:36;17.50;99.90
14993;DHT22;7592;51.088;13.732;2022-09-09T22:22:28;17.20;99.90
14993;DHT22;7592;51.088;13.732;2022-09-09T22:27:20;17.00;99.90
14993;DHT22;7592;51.088;13.732;2022-09-09T22:32:12;16.90;99.90
14993;DHT22;7592;51.088;13.732;2022-09-09T22:37:04;17.00;99.90
14993;DHT22;7592;51.088;13.732;2022-09-09T22:41:57;16.90;99.90
14993;DHT22;7592;51.088;13.732;2022-09-09T22:46:50;16.90;99.90
14993;DHT22;7592;51.088;13.732;2022-09-09T22:51:42;16.70;99.90
14993;DHT22;7592;51.088;13.732;2022-09-09T22:56:34;16.60;99.90
14993;DHT22;7592;51.088;13.732;2022-09-09T23:01:27;16.50;99.90
14993;DHT22;7592;51.088;13.732;2022-09-09T23:06:21;16.50;99.90
14993;DHT22;7592;51.088;13.732;2022-09-09T23:11:14;16.40;99.90
14993;DHT22;7592;51.088;13.732;2022-09-09T23:16:21;16.30;99.90
14993;DHT22;7592;51.088;13.732;2022-09-09T23:21:14;16.20;99.90
14993;DHT22;7592;51.088;13.732;2022-09-09T23:26:13;16.30;99.90
14993;DHT22;7592;51.088;13.732;2022-09-09T23:31:13;16.20;99.90
14993;DHT22;7592;51.088;13.732;2022-09-09T23:36:09;16.10;99.90
14993;DHT22;7592;51.088;13.732;2022-09-09T23:41:03;16.00;99.90
14993;DHT22;7592;51.088;13.732;2022-09-09T23:45:55;15.80;99.90
14993;DHT22;7592;51.088;13.732;2022-09-09T23:50:51;15.70;99.90
14993;DHT22;7592;51.088;13.732;2022-09-09T23:55:44;15.60;99.90
